createdAt,value
2023-02-19T00:00:17.510Z,5.08
2023-02-19T00:03:08.658Z,5.11
2023-02-19T00:05:39.371Z,5.13
2023-02-19T00:08:10.027Z,5.12
2023-02-19T00:10:40.744Z,5.12
2023-02-19T00:13:11.342Z,5.13
2023-02-19T00:15:42.061Z,5.11
2023-02-19T00:18:12.698Z,5.10
2023-02-19T00:20:43.417Z,5.10
2023-02-19T00:23:14.170Z,5.12
2023-02-19T00:25:44.947Z,5.07
2023-02-19T00:28:15.826Z,5.02
2023-02-19T00:30:46.634Z,4.99
2023-02-19T00:33:17.291Z,5.01
2023-02-19T00:35:47.972Z,4.99
2023-02-19T00:38:18.609Z,4.95
2023-02-19T00:40:49.335Z,4.95
2023-02-19T00:43:19.951Z,4.93
2023-02-19T00:45:50.604Z,4.88
2023-02-19T00:48:21.251Z,4.87
2023-02-19T00:50:51.958Z,4.90
2023-02-19T00:53:22.648Z,4.90
2023-02-19T00:55:53.358Z,4.89
2023-02-19T00:58:24.078Z,4.88
2023-02-19T01:00:55.150Z,4.88
2023-02-19T01:03:24.257Z,4.93
2023-02-19T01:05:54.989Z,4.94
2023-02-19T01:08:25.711Z,4.96
2023-02-19T01:10:56.452Z,4.94
2023-02-19T01:13:28.056Z,4.96
2023-02-19T01:16:06.701Z,4.98
2023-02-19T01:18:37.406Z,4.98
2023-02-19T01:21:11.628Z,4.99
2023-02-19T01:23:42.976Z,4.98
2023-02-19T01:26:17.087Z,4.96
2023-02-19T01:28:48.489Z,4.95
2023-02-19T01:31:21.064Z,4.90
2023-02-19T01:33:53.503Z,4.86
2023-02-19T01:36:24.920Z,4.85
2023-02-19T01:38:55.603Z,4.85
2023-02-19T01:41:27.036Z,4.85
2023-02-19T01:44:04.311Z,4.86
2023-02-19T01:46:36.444Z,4.85
2023-02-19T01:49:10.710Z,4.80
2023-02-19T01:51:45.259Z,4.76
2023-02-19T01:54:19.978Z,4.75
2023-02-19T01:56:51.282Z,4.72
2023-02-19T01:59:22.229Z,4.72
2023-02-19T02:01:53.064Z,4.72
2023-02-19T02:04:23.819Z,4.72
2023-02-19T02:06:56.435Z,4.72
2023-02-19T02:09:29.436Z,4.70
2023-02-19T02:12:00.115Z,4.67
2023-02-19T02:14:38.035Z,4.62
2023-02-19T02:17:20.620Z,4.59
2023-02-19T02:20:07.733Z,4.58
2023-02-19T02:22:42.675Z,4.63
2023-02-19T02:25:32.100Z,4.65
2023-02-19T02:28:21.764Z,4.68
2023-02-19T02:30:56.485Z,4.69
2023-02-19T02:33:32.835Z,4.68
2023-02-19T02:36:10.835Z,4.71
2023-02-19T02:38:45.166Z,4.70
2023-02-19T02:41:17.031Z,4.69
2023-02-19T02:43:47.861Z,4.69
2023-02-19T02:46:23.283Z,4.68
2023-02-19T02:48:56.472Z,4.66
2023-02-19T02:51:30.900Z,4.63
2023-02-19T02:54:05.416Z,4.62
2023-02-19T02:56:36.604Z,4.61
2023-02-19T02:59:09.955Z,4.63
2023-02-19T03:01:46.677Z,4.65
2023-02-19T03:04:24.595Z,4.65
2023-02-19T03:06:57.630Z,4.67
2023-02-19T03:09:32.772Z,4.70
2023-02-19T03:12:05.668Z,4.74
2023-02-19T03:14:42.661Z,4.77
2023-02-19T03:17:22.003Z,4.78
2023-02-19T03:19:56.072Z,4.79
2023-02-19T03:22:29.835Z,4.81
2023-02-19T03:25:04.098Z,4.80
2023-02-19T03:27:37.984Z,4.77
2023-02-19T03:30:16.816Z,4.76
2023-02-19T03:32:52.289Z,4.73
2023-02-19T03:35:27.441Z,4.72
2023-02-19T03:38:04.772Z,4.73
2023-02-19T03:40:41.941Z,4.74
2023-02-19T03:43:19.604Z,4.79
2023-02-19T03:45:58.558Z,4.84
2023-02-19T03:48:34.135Z,4.85
2023-02-19T03:51:18.110Z,4.84
2023-02-19T03:54:00.941Z,4.85
2023-02-19T03:56:37.228Z,4.86
2023-02-19T03:59:14.374Z,4.82
2023-02-19T04:01:48.960Z,4.81
2023-02-19T04:04:25.202Z,4.83
2023-02-19T04:06:57.473Z,4.83
2023-02-19T04:09:33.553Z,4.84
2023-02-19T04:12:05.113Z,4.80
2023-02-19T04:14:39.844Z,4.80
2023-02-19T04:17:18.205Z,4.79
2023-02-19T04:19:51.432Z,4.79
2023-02-19T04:22:24.538Z,4.79
2023-02-19T04:24:55.879Z,4.80
2023-02-19T04:27:26.542Z,4.83
2023-02-19T04:29:57.173Z,4.84
2023-02-19T04:32:28.001Z,4.84
2023-02-19T04:34:58.612Z,4.80
2023-02-19T04:37:29.316Z,4.75
2023-02-19T04:40:00.167Z,4.67
2023-02-19T04:42:31.354Z,4.63
2023-02-19T04:45:02.388Z,4.61
2023-02-19T04:47:34.738Z,4.62
2023-02-19T04:50:06.314Z,4.63
2023-02-19T04:52:44.505Z,4.61
2023-02-19T04:55:15.213Z,4.57
2023-02-19T04:57:45.868Z,4.55
2023-02-19T05:00:18.182Z,4.53
2023-02-19T05:02:48.879Z,4.51
2023-02-19T05:05:19.611Z,4.51
2023-02-19T05:07:50.761Z,4.51
2023-02-19T05:10:21.414Z,4.49
2023-02-19T05:12:52.091Z,4.47
2023-02-19T05:15:22.707Z,4.44
2023-02-19T05:17:53.330Z,4.38
2023-02-19T05:20:23.983Z,4.33
2023-02-19T05:22:54.746Z,4.28
2023-02-19T05:25:25.548Z,4.24
2023-02-19T05:27:56.185Z,4.19
2023-02-19T05:30:26.888Z,4.14
2023-02-19T05:32:57.897Z,4.09
2023-02-19T05:35:28.522Z,4.08
2023-02-19T05:37:59.156Z,4.09
2023-02-19T05:40:29.767Z,4.07
2023-02-19T05:43:00.502Z,4.03
2023-02-19T05:45:31.571Z,4.01
2023-02-19T05:48:02.963Z,3.98
2023-02-19T05:50:35.164Z,3.97
2023-02-19T05:53:06.713Z,3.99
2023-02-19T05:55:37.539Z,3.96
2023-02-19T05:58:08.282Z,3.95
2023-02-19T06:00:38.932Z,3.94
2023-02-19T06:03:09.602Z,3.94
2023-02-19T06:05:40.259Z,3.92
2023-02-19T06:08:12.724Z,3.92
2023-02-19T06:10:43.698Z,3.92
2023-02-19T06:13:16.842Z,3.92
2023-02-19T06:15:48.409Z,3.92
2023-02-19T06:18:19.081Z,3.92
2023-02-19T06:20:49.849Z,3.94
2023-02-19T06:23:20.571Z,3.95
2023-02-19T06:25:51.234Z,3.96
2023-02-19T06:28:21.970Z,3.97
2023-02-19T06:30:52.610Z,3.95
2023-02-19T06:33:23.268Z,3.96
2023-02-19T06:35:53.920Z,3.99
2023-02-19T06:38:24.930Z,4.01
2023-02-19T06:40:55.510Z,4.07
2023-02-19T06:43:26.276Z,4.13
2023-02-19T06:45:59.909Z,4.16
2023-02-19T06:48:31.302Z,4.17
2023-02-19T06:51:02.041Z,4.21
2023-02-19T06:53:33.043Z,4.22
2023-02-19T06:56:06.447Z,4.24
2023-02-19T06:58:37.529Z,4.22
2023-02-19T07:01:06.722Z,4.18
2023-02-19T07:03:37.461Z,4.14
2023-02-19T07:06:10.363Z,4.17
2023-02-19T07:08:41.265Z,4.17
2023-02-19T07:11:12.094Z,4.17
2023-02-19T07:13:42.895Z,4.21
2023-02-19T07:16:14.584Z,4.29
2023-02-19T07:18:45.229Z,4.34
2023-02-19T07:21:17.962Z,4.32
2023-02-19T07:23:48.667Z,4.29
2023-02-19T07:26:21.001Z,4.22
2023-02-19T07:28:52.786Z,4.19
2023-02-19T07:31:25.016Z,4.17
2023-02-19T07:33:56.399Z,4.16
2023-02-19T07:36:27.042Z,4.14
2023-02-19T07:38:58.627Z,4.12
2023-02-19T07:41:29.273Z,4.11
2023-02-19T07:43:59.983Z,4.09
2023-02-19T07:46:30.604Z,4.10
2023-02-19T07:49:01.440Z,4.14
2023-02-19T07:51:32.664Z,4.23
2023-02-19T07:54:03.645Z,4.30
2023-02-19T07:56:34.266Z,4.35
2023-02-19T07:59:04.983Z,4.39
2023-02-19T08:01:35.679Z,4.45
2023-02-19T08:04:06.743Z,4.53
2023-02-19T08:06:35.834Z,4.60
2023-02-19T08:09:06.891Z,4.65
2023-02-19T08:11:35.930Z,4.70
2023-02-19T08:14:06.643Z,4.71
2023-02-19T08:16:43.292Z,4.80
2023-02-19T08:19:14.226Z,4.85
2023-02-19T08:21:45.024Z,4.85
2023-02-19T08:24:15.680Z,4.91
2023-02-19T08:26:46.497Z,4.98
2023-02-19T08:29:17.240Z,5.05
2023-02-19T08:31:48.184Z,4.95
2023-02-19T08:34:18.924Z,4.83
2023-02-19T08:36:49.698Z,4.70
2023-02-19T08:39:21.243Z,4.65
2023-02-19T08:41:52.040Z,4.67
2023-02-19T08:44:22.956Z,4.78
2023-02-19T08:46:53.586Z,4.90
2023-02-19T08:49:27.729Z,4.99
2023-02-19T08:51:58.441Z,5.10
2023-02-19T08:54:29.096Z,5.19
2023-02-19T08:56:59.865Z,5.24
2023-02-19T08:59:31.617Z,5.25
2023-02-19T09:02:02.252Z,5.26
2023-02-19T09:04:33.262Z,5.28
2023-02-19T09:07:04.752Z,5.31
2023-02-19T09:09:36.807Z,5.36
2023-02-19T09:12:11.153Z,5.51
2023-02-19T09:14:41.893Z,5.64
2023-02-19T09:17:12.797Z,5.71
2023-02-19T09:19:43.533Z,5.79
2023-02-19T09:22:14.233Z,5.82
2023-02-19T09:24:45.930Z,5.90
2023-02-19T09:27:19.444Z,5.87
2023-02-19T09:29:50.169Z,5.86
2023-02-19T09:32:20.874Z,5.93
2023-02-19T09:34:51.559Z,5.88
2023-02-19T09:37:26.849Z,5.80
2023-02-19T09:39:57.535Z,5.73
2023-02-19T09:42:32.266Z,5.62
2023-02-19T09:45:04.895Z,5.61
2023-02-19T09:47:35.972Z,5.58
2023-02-19T09:53:14.415Z,5.53
2023-02-19T09:55:45.830Z,5.49
2023-02-19T09:58:25.918Z,5.51
2023-02-19T10:00:58.849Z,5.50
2023-02-19T10:03:32.409Z,5.51
2023-02-19T10:06:10.884Z,5.60
2023-02-19T10:08:45.252Z,5.74
2023-02-19T10:11:16.401Z,5.87
2023-02-19T10:13:50.906Z,6.00
2023-02-19T10:16:25.419Z,6.12
2023-02-19T10:18:56.262Z,6.28
2023-02-19T10:21:27.910Z,6.43
2023-02-19T10:24:02.561Z,6.47
2023-02-19T10:26:33.606Z,6.62
2023-02-19T10:29:03.066Z,6.82
2023-02-19T10:31:34.903Z,6.82
2023-02-19T10:34:16.751Z,6.81
2023-02-19T10:36:49.930Z,6.86
2023-02-19T10:39:42.314Z,7.04
2023-02-19T10:42:23.159Z,7.17
2023-02-19T10:44:56.529Z,7.09
2023-02-19T10:47:30.498Z,7.03
2023-02-19T10:50:04.368Z,6.88
2023-02-19T10:52:36.346Z,6.76
2023-02-19T10:55:26.248Z,6.70
2023-02-19T10:57:57.533Z,6.71
2023-02-19T11:00:30.541Z,6.73
2023-02-19T11:03:22.394Z,6.75
2023-02-19T11:06:05.144Z,6.68
2023-02-19T11:08:47.441Z,6.56
2023-02-19T11:11:43.902Z,6.58
2023-02-19T11:14:18.943Z,6.53
2023-02-19T11:16:51.603Z,6.55
2023-02-19T11:19:34.301Z,6.61
2023-02-19T11:22:21.042Z,6.69
2023-02-19T11:24:56.675Z,6.80
2023-02-19T11:27:28.559Z,6.80
2023-02-19T11:30:39.160Z,6.78
2023-02-19T11:33:27.904Z,6.86
2023-02-19T11:36:30.311Z,7.02
2023-02-19T11:39:19.516Z,7.11
2023-02-19T11:42:17.104Z,7.21
2023-02-19T11:44:56.955Z,7.27
2023-02-19T11:47:58.192Z,7.28
2023-02-19T11:50:38.584Z,7.26
2023-02-19T11:53:21.407Z,7.24
2023-02-19T11:56:12.342Z,7.52
2023-02-19T11:59:00.946Z,7.99
2023-02-19T12:01:44.288Z,8.36
2023-02-19T12:04:56.445Z,8.58
2023-02-19T12:07:49.070Z,8.82
2023-02-19T12:10:33.271Z,8.85
2023-02-19T12:13:14.489Z,8.73
2023-02-19T12:18:59.002Z,8.92
2023-02-19T12:21:43.921Z,9.04
2023-02-19T12:24:38.353Z,9.18
2023-02-19T12:27:24.658Z,9.15
2023-02-19T12:30:20.115Z,8.91
2023-02-19T12:33:06.678Z,8.64
2023-02-19T12:35:58.653Z,8.49
2023-02-19T12:38:35.203Z,8.09
2023-02-19T12:41:27.357Z,8.00
2023-02-19T12:44:01.566Z,8.01
2023-02-19T12:46:36.472Z,8.21
2023-02-19T12:49:14.223Z,8.34
2023-02-19T12:51:48.682Z,8.37
2023-02-19T12:54:25.035Z,8.52
2023-02-19T12:57:00.630Z,8.68
2023-02-19T12:59:38.742Z,8.88
2023-02-19T13:02:16.293Z,8.82
2023-02-19T13:04:55.199Z,8.96
2023-02-19T13:07:30.869Z,9.16
2023-02-19T13:10:32.833Z,9.16
2023-02-19T13:13:07.223Z,9.13
2023-02-19T13:15:41.726Z,9.08
2023-02-19T13:18:18.329Z,9.09
2023-02-19T13:20:50.955Z,9.01
2023-02-19T13:23:29.018Z,8.93
2023-02-19T13:26:22.434Z,8.90
2023-02-19T13:29:05.193Z,8.90
2023-02-19T13:31:55.187Z,8.73
2023-02-19T13:34:40.231Z,8.43
2023-02-19T13:37:11.938Z,8.36
2023-02-19T13:39:49.463Z,8.52
2023-02-19T13:42:32.762Z,8.64
2023-02-19T13:45:05.143Z,8.69
2023-02-19T13:47:50.373Z,8.67
2023-02-19T13:50:23.793Z,8.63
2023-02-19T13:52:54.885Z,8.52
2023-02-19T13:55:41.639Z,8.49
2023-02-19T13:58:36.571Z,8.40
2023-02-19T14:01:07.899Z,8.31
2023-02-19T14:04:07.022Z,8.28
2023-02-19T14:07:23.492Z,8.27
2023-02-19T14:09:54.780Z,8.19
2023-02-19T14:12:33.639Z,8.01
2023-02-19T14:15:50.512Z,7.79
2023-02-19T14:18:49.509Z,7.66
2023-02-19T14:21:27.922Z,7.49
2023-02-19T14:23:59.911Z,7.43
2023-02-19T14:26:34.054Z,7.48
2023-02-19T14:29:09.155Z,7.44
2023-02-19T14:31:50.349Z,7.45
2023-02-19T14:34:25.961Z,7.42
2023-02-19T14:37:01.160Z,7.41
2023-02-19T14:39:35.824Z,7.28
2023-02-19T14:42:42.155Z,7.04
2023-02-19T14:45:10.954Z,6.83
2023-02-19T14:47:46.503Z,6.68
2023-02-19T14:50:25.608Z,6.56
2023-02-19T14:52:59.858Z,6.44
2023-02-19T14:55:40.821Z,6.35
2023-02-19T14:58:30.271Z,6.29
2023-02-19T15:01:01.367Z,6.16
2023-02-19T15:03:34.456Z,6.14
2023-02-19T15:06:11.263Z,6.13
2023-02-19T15:08:47.139Z,6.05
2023-02-19T15:11:21.704Z,6.01
2023-02-19T15:13:58.601Z,5.97
2023-02-19T15:16:31.265Z,5.95
2023-02-19T15:19:06.147Z,5.91
2023-02-19T15:21:44.839Z,5.90
2023-02-19T15:24:17.659Z,5.88
2023-02-19T15:26:52.214Z,5.84
2023-02-19T15:29:27.250Z,5.80
2023-02-19T15:31:59.582Z,5.75
2023-02-19T15:34:32.634Z,5.70
2023-02-19T15:37:05.833Z,5.65
2023-02-19T15:39:39.496Z,5.64
2023-02-19T15:42:16.528Z,5.63
2023-02-19T15:44:52.232Z,5.63
2023-02-19T15:47:29.677Z,5.63
2023-02-19T15:50:05.525Z,5.62
2023-02-19T15:52:44.919Z,5.64
2023-02-19T15:55:28.537Z,5.61
2023-02-19T15:58:06.797Z,5.57
2023-02-19T16:00:44.896Z,5.52
2023-02-19T16:03:20.252Z,5.42
2023-02-19T16:06:01.826Z,5.34
2023-02-19T16:08:34.662Z,5.26
2023-02-19T16:11:19.036Z,5.21
2023-02-19T16:13:50.224Z,5.16
2023-02-19T16:16:24.146Z,5.14
2023-02-19T16:19:06.405Z,5.12
2023-02-19T16:21:37.266Z,5.11
2023-02-19T16:24:13.913Z,5.08
2023-02-19T16:26:46.019Z,5.04
2023-02-19T16:29:21.881Z,5.00
2023-02-19T16:31:55.201Z,4.93
2023-02-19T16:34:42.852Z,4.86
2023-02-19T16:37:37.482Z,4.78
2023-02-19T16:40:50.772Z,4.67
2023-02-19T16:43:30.295Z,4.57
2023-02-19T16:46:01.875Z,4.51
2023-02-19T16:48:37.449Z,4.46
2023-02-19T16:51:07.790Z,4.42
2023-02-19T16:53:38.656Z,4.36
2023-02-19T16:56:15.884Z,4.32
2023-02-19T16:58:46.744Z,4.27
2023-02-19T17:01:19.095Z,4.21
2023-02-19T17:03:51.274Z,4.15
2023-02-19T17:06:21.979Z,4.10
2023-02-19T17:08:53.692Z,4.05
2023-02-19T17:11:58.005Z,4.00
2023-02-19T17:14:31.415Z,3.95
2023-02-19T17:17:03.655Z,3.92
2023-02-19T17:19:36.286Z,3.89
2023-02-19T17:22:14.379Z,3.87
2023-02-19T17:24:45.094Z,3.87
2023-02-19T17:27:15.946Z,3.84
2023-02-19T17:29:46.666Z,3.81
2023-02-19T17:32:17.465Z,3.78
2023-02-19T17:34:48.301Z,3.74
2023-02-19T17:37:18.934Z,3.71
2023-02-19T17:39:50.641Z,3.68
2023-02-19T17:42:21.833Z,3.66
2023-02-19T17:44:52.706Z,3.65
2023-02-19T17:47:23.719Z,3.65
2023-02-19T17:49:54.391Z,3.64
2023-02-19T17:52:26.678Z,3.61
2023-02-19T17:54:57.608Z,3.58
2023-02-19T17:57:52.630Z,3.53
2023-02-19T18:00:37.958Z,3.48
2023-02-19T18:03:13.009Z,3.40
2023-02-19T18:05:45.667Z,3.36
2023-02-19T18:08:16.326Z,3.29
2023-02-19T18:10:49.829Z,3.25
2023-02-19T18:13:20.628Z,3.19
2023-02-19T18:16:22.912Z,3.16
2023-02-19T18:18:43.869Z,3.12
2023-02-19T18:21:13.917Z,3.06
2023-02-19T18:23:46.535Z,3.01
2023-02-19T18:26:21.582Z,2.95
2023-02-19T18:28:57.861Z,2.91
2023-02-19T18:31:31.770Z,2.86
2023-02-19T18:34:02.580Z,2.84
2023-02-19T18:37:00.247Z,2.81
2023-02-19T18:39:46.014Z,2.79
2023-02-19T18:42:17.201Z,2.77
2023-02-19T18:44:50.757Z,2.75
2023-02-19T18:47:23.071Z,2.72
2023-02-19T18:49:55.507Z,2.69
2023-02-19T18:52:27.396Z,2.72
2023-02-19T18:54:58.395Z,2.72
2023-02-19T18:57:27.689Z,2.73
2023-02-19T19:00:23.967Z,2.74
2023-02-19T19:02:54.368Z,2.73
2023-02-19T19:05:33.272Z,2.73
2023-02-19T19:08:09.808Z,2.68
2023-02-19T19:10:40.402Z,2.68
2023-02-19T19:13:13.633Z,2.69
2023-02-19T19:15:49.244Z,2.62
2023-02-19T19:18:20.213Z,2.59
2023-02-19T19:20:50.841Z,2.57
2023-02-19T19:23:26.073Z,2.54
2023-02-19T19:25:58.962Z,2.53
2023-02-19T19:28:30.640Z,2.52
2023-02-19T19:31:01.413Z,2.53
2023-02-19T19:33:32.159Z,2.55
2023-02-19T19:36:21.910Z,2.55
2023-02-19T19:38:52.766Z,2.56
2023-02-19T19:41:27.671Z,2.55
2023-02-19T19:44:01.814Z,2.56
2023-02-19T19:46:32.871Z,2.57
2023-02-19T19:49:21.993Z,2.57
2023-02-19T19:51:53.960Z,2.55
2023-02-19T19:54:28.213Z,2.54
2023-02-19T19:56:59.166Z,2.53
2023-02-19T19:59:38.254Z,2.51
2023-02-19T20:02:18.270Z,2.50
2023-02-19T20:05:12.106Z,2.50
2023-02-19T20:07:39.136Z,2.47
2023-02-19T20:10:19.099Z,2.43
2023-02-19T20:12:51.337Z,2.40
2023-02-19T20:15:24.061Z,2.36
2023-02-19T20:17:54.991Z,2.35
2023-02-19T20:20:25.880Z,2.35
2023-02-19T20:22:56.566Z,2.36
2023-02-19T20:25:27.550Z,2.33
2023-02-19T20:27:58.410Z,2.33
2023-02-19T20:30:38.276Z,2.33
2023-02-19T20:33:09.032Z,2.30
2023-02-19T20:35:39.956Z,2.25
2023-02-19T20:38:14.108Z,2.23
2023-02-19T20:40:44.957Z,2.22
2023-02-19T20:43:16.270Z,2.21
2023-02-19T20:45:47.081Z,2.20
2023-02-19T20:48:18.600Z,2.17
2023-02-19T20:50:49.405Z,2.11
2023-02-19T20:53:20.155Z,2.05
2023-02-19T20:55:50.827Z,2.01
2023-02-19T20:58:21.586Z,1.98
2023-02-19T21:00:52.502Z,1.96
2023-02-19T21:03:23.611Z,1.95
2023-02-19T21:05:54.266Z,1.95
2023-02-19T21:08:24.893Z,1.96
2023-02-19T21:10:55.606Z,1.98
2023-02-19T21:13:27.283Z,1.98
2023-02-19T21:15:59.237Z,1.98
2023-02-19T21:18:32.162Z,1.99
2023-02-19T21:21:02.888Z,2.02
2023-02-19T21:23:33.618Z,2.02
2023-02-19T21:26:27.785Z,1.99
2023-02-19T21:28:58.384Z,1.94
2023-02-19T21:31:37.720Z,1.93
2023-02-19T21:34:19.441Z,1.90
2023-02-19T21:37:10.712Z,1.89
2023-02-19T21:39:39.854Z,1.84
2023-02-19T21:42:13.156Z,1.78
2023-02-19T21:44:43.785Z,1.73
2023-02-19T21:47:14.506Z,1.68
2023-02-19T21:49:45.222Z,1.69
2023-02-19T21:52:16.007Z,1.63
2023-02-19T21:54:46.857Z,1.61
2023-02-19T21:57:17.545Z,1.58
2023-02-19T21:59:48.155Z,1.56
2023-02-19T22:02:18.961Z,1.51
2023-02-19T22:04:55.701Z,1.49
2023-02-19T22:07:26.429Z,1.47
2023-02-19T22:09:57.044Z,1.48
2023-02-19T22:12:27.769Z,1.47
2023-02-19T22:15:01.601Z,1.51
2023-02-19T22:17:32.232Z,1.53
2023-02-19T22:20:03.201Z,1.54
2023-02-19T22:22:35.360Z,1.56
2023-02-19T22:25:06.675Z,1.57
2023-02-19T22:27:43.080Z,1.55
2023-02-19T22:30:15.894Z,1.55
2023-02-19T22:32:48.848Z,1.53
2023-02-19T22:35:19.819Z,1.54
2023-02-19T22:37:50.566Z,1.56
2023-02-19T22:40:21.322Z,1.57
2023-02-19T22:42:54.637Z,1.58
2023-02-19T22:45:25.254Z,1.58
2023-02-19T22:47:56.952Z,1.62
2023-02-19T22:50:27.530Z,1.67
2023-02-19T22:52:58.291Z,1.72
2023-02-19T22:55:28.921Z,1.77
2023-02-19T22:57:59.606Z,1.78
2023-02-19T23:00:30.288Z,1.82
2023-02-19T23:03:01.275Z,1.85
2023-02-19T23:05:30.506Z,1.87
2023-02-19T23:08:01.247Z,1.89
2023-02-19T23:10:31.915Z,1.92
2023-02-19T23:13:02.582Z,1.94
2023-02-19T23:15:33.721Z,1.91
2023-02-19T23:18:02.906Z,1.88
2023-02-19T23:20:33.637Z,1.87
2023-02-19T23:23:04.339Z,1.85
2023-02-19T23:25:35.145Z,1.84
2023-02-19T23:28:06.169Z,1.85
2023-02-19T23:30:35.334Z,1.85
2023-02-19T23:33:06.113Z,1.85
2023-02-19T23:35:36.749Z,1.83
2023-02-19T23:38:07.441Z,1.75
2023-02-19T23:40:38.401Z,1.75
2023-02-19T23:43:09.088Z,1.76
2023-02-19T23:45:39.685Z,1.76
2023-02-19T23:48:10.352Z,1.75
2023-02-19T23:50:41.007Z,1.74
2023-02-19T23:53:11.746Z,1.74
2023-02-19T23:55:42.541Z,1.73
2023-02-19T23:58:13.853Z,1.73
